createdAt,value
2019-01-14T00:01:28.225Z,3.7
2019-01-14T00:06:30.671Z,3.7
2019-01-14T00:11:33.115Z,3.7
2019-01-14T00:16:35.623Z,3.7
2019-01-14T00:21:38.024Z,3.8
2019-01-14T00:26:40.487Z,3.8
2019-01-14T00:31:42.950Z,3.8
2019-01-14T00:36:45.521Z,3.8
2019-01-14T00:41:47.862Z,3.9
2019-01-14T00:46:50.367Z,3.9
2019-01-14T00:51:53.100Z,3.9
2019-01-14T00:56:55.242Z,3.8
2019-01-14T01:01:57.710Z,3.8
2019-01-14T01:07:00.202Z,3.8
2019-01-14T01:12:02.608Z,3.8
2019-01-14T01:17:05.102Z,3.8
2019-01-14T01:22:07.566Z,3.7
2019-01-14T01:27:10.174Z,3.7
2019-01-14T01:32:12.447Z,3.7
2019-01-14T01:37:15.368Z,3.7
2019-01-14T01:42:17.379Z,3.7
2019-01-14T01:47:19.817Z,3.5
2019-01-14T01:52:22.282Z,3.4
2019-01-14T01:57:24.775Z,3.2
2019-01-14T02:02:27.181Z,3.1
2019-01-14T02:07:29.656Z,3
2019-01-14T02:12:32.185Z,3
2019-01-14T02:17:34.579Z,3
2019-01-14T02:22:37.030Z,2.9
2019-01-14T02:27:39.465Z,2.8
2019-01-14T02:32:41.984Z,2.6
2019-01-14T02:37:44.378Z,2.4
2019-01-14T02:42:46.879Z,2.4
2019-01-14T02:47:49.327Z,2.3
2019-01-14T02:52:51.765Z,2.4
2019-01-14T02:57:54.216Z,2.5
2019-01-14T03:02:56.683Z,2.6
2019-01-14T03:07:59.125Z,2.6
2019-01-14T03:13:01.618Z,2.6
2019-01-14T03:18:04.036Z,2.6
2019-01-14T03:23:06.489Z,2.6
2019-01-14T03:28:08.953Z,2.7
2019-01-14T03:33:11.426Z,2.6
2019-01-14T03:38:13.873Z,2.6
2019-01-14T03:43:16.374Z,2.6
2019-01-14T03:48:18.775Z,2.6
2019-01-14T03:53:21.241Z,2.6
2019-01-14T03:58:23.844Z,2.6
2019-01-14T04:03:26.162Z,2.5
2019-01-14T04:08:28.611Z,2.4
2019-01-14T04:13:31.254Z,2.2
2019-01-14T04:18:33.575Z,2
2019-01-14T04:23:35.992Z,2
2019-01-14T04:28:38.422Z,2
2019-01-14T04:33:40.893Z,2
2019-01-14T04:38:43.356Z,2
2019-01-14T04:43:45.796Z,2
2019-01-14T04:48:48.268Z,2
2019-01-14T04:53:51.043Z,2
2019-01-14T04:58:53.248Z,1.9
2019-01-14T05:03:55.643Z,1.9
2019-01-14T05:08:58.104Z,1.8
2019-01-14T05:14:00.610Z,1.6
2019-01-14T05:19:02.994Z,1.4
2019-01-14T05:24:05.463Z,1.2
2019-01-14T05:29:07.944Z,1.1
2019-01-14T05:34:15.381Z,1
2019-01-14T05:39:12.870Z,1
2019-01-14T05:49:17.796Z,0.9
2019-01-14T05:54:20.277Z,0.8
2019-01-14T05:59:22.714Z,0.7
2019-01-14T06:04:25.168Z,0.7
2019-01-14T06:09:27.628Z,0.6
2019-01-14T06:14:30.085Z,0.5
2019-01-14T06:19:32.584Z,0.4
2019-01-14T06:24:35.020Z,0.4
2019-01-14T06:29:37.482Z,0.4
2019-01-14T06:34:39.939Z,0.4
2019-01-14T06:39:42.407Z,0.5
2019-01-14T06:44:44.878Z,0.6
2019-01-14T06:49:47.333Z,0.7
2019-01-14T06:54:49.835Z,0.8
2019-01-14T06:59:52.265Z,0.7
2019-01-14T07:04:54.716Z,0.8
2019-01-14T07:09:57.203Z,1
2019-01-14T07:14:59.634Z,0.9
2019-01-14T07:20:07.123Z,0.9
2019-01-14T07:25:04.603Z,1
2019-01-14T07:30:07.119Z,1.1
2019-01-14T07:35:09.494Z,1.2
2019-01-14T07:40:12.002Z,1.3
2019-01-14T07:45:14.428Z,1.3
2019-01-14T07:50:16.884Z,1.5
2019-01-14T07:55:19.487Z,1.5
2019-01-14T08:00:21.823Z,1.6
2019-01-14T08:05:24.843Z,1.7
2019-01-14T08:10:26.841Z,1.7
2019-01-14T08:15:29.189Z,1.8
2019-01-14T08:20:31.643Z,1.7
2019-01-14T08:25:34.092Z,1.9
2019-01-14T08:30:36.573Z,2
2019-01-14T08:35:39.011Z,2
2019-01-14T08:40:41.478Z,1.9
2019-01-14T08:45:43.972Z,1.9
2019-01-14T08:50:46.390Z,2
2019-01-14T08:55:48.897Z,2
2019-01-14T09:00:51.342Z,2
2019-01-14T09:05:53.762Z,2
2019-01-14T09:10:56.214Z,1.9
2019-01-14T09:15:58.679Z,1.9
2019-01-14T09:21:01.193Z,1.8
2019-01-14T09:26:03.583Z,1.8
2019-01-14T09:31:06.040Z,1.7
2019-01-14T09:36:08.606Z,1.6
2019-01-14T09:41:10.958Z,1.4
2019-01-14T09:46:13.427Z,1.2
2019-01-14T09:51:15.901Z,1.1
2019-01-14T09:56:18.353Z,1
2019-01-14T10:01:20.845Z,1
2019-01-14T10:06:23.290Z,1
2019-01-14T10:11:25.861Z,0.9
2019-01-14T10:16:28.211Z,0.9
2019-01-14T10:21:30.671Z,0.9
2019-01-14T10:26:33.313Z,0.9
2019-01-14T10:31:35.615Z,1
2019-01-14T10:36:38.095Z,1.2
2019-01-14T10:41:40.519Z,1.4
2019-01-14T10:46:42.969Z,1.6
2019-01-14T10:51:45.419Z,1.9
2019-01-14T10:56:47.928Z,2.8
2019-01-14T11:01:50.384Z,2.9
2019-01-14T11:06:52.801Z,2.8
2019-01-14T11:11:55.259Z,3
2019-01-14T11:16:57.751Z,3.3
2019-01-14T11:22:00.158Z,3.3
2019-01-14T11:27:02.627Z,3.2
2019-01-14T11:32:05.080Z,3.1
2019-01-14T11:37:07.541Z,3.1
2019-01-14T11:42:10.048Z,3.3
2019-01-14T11:47:12.447Z,3.5
2019-01-14T11:52:14.899Z,3.8
2019-01-14T11:57:17.393Z,3.7
2019-01-14T12:02:19.854Z,3.5
2019-01-14T12:07:22.295Z,3.3
2019-01-14T12:12:24.812Z,3.3
2019-01-14T12:17:27.191Z,3.7
2019-01-14T12:22:29.680Z,4
2019-01-14T12:27:32.121Z,3.9
2019-01-14T12:32:34.575Z,3.6
2019-01-14T12:37:37.016Z,3.5
2019-01-14T12:42:39.481Z,3.3
2019-01-14T12:47:41.957Z,3.1
2019-01-14T12:52:44.391Z,3.7
2019-01-14T12:57:46.955Z,5.8
2019-01-14T13:02:49.338Z,6.3
2019-01-14T13:07:51.763Z,5.6
2019-01-14T13:12:54.232Z,4.7
2019-01-14T13:17:56.676Z,4
2019-01-14T13:22:59.194Z,3.6
2019-01-14T13:28:01.620Z,3.1
2019-01-14T13:33:04.049Z,2.6
2019-01-14T13:38:06.552Z,2.3
2019-01-14T13:43:08.961Z,2.1
2019-01-14T13:48:11.443Z,2
2019-01-14T13:53:13.870Z,1.9
2019-01-14T13:58:16.380Z,1.8
2019-01-14T14:03:18.790Z,1.8
2019-01-14T14:08:21.325Z,1.7
2019-01-14T14:13:23.728Z,1.5
2019-01-14T14:18:26.253Z,1.4
2019-01-14T14:23:28.649Z,1.2
2019-01-14T14:28:31.099Z,1
2019-01-14T14:33:33.577Z,1
2019-01-14T14:38:36.194Z,1
2019-01-14T14:43:38.486Z,1.1
2019-01-14T14:48:40.955Z,1.1
2019-01-14T14:53:43.413Z,1
2019-01-14T14:58:45.883Z,0.9
2019-01-14T15:03:48.885Z,0.8
2019-01-14T15:08:50.842Z,0.7
2019-01-14T15:13:53.654Z,0.7
2019-01-14T15:18:55.766Z,0.6
2019-01-14T15:23:58.205Z,0.5
2019-01-14T15:29:00.675Z,0.2
2019-01-14T15:34:03.132Z,655.26
2019-01-14T15:39:05.610Z,654.96
2019-01-14T15:44:08.109Z,654.86
2019-01-14T15:49:10.516Z,654.86
2019-01-14T15:54:13.016Z,654.76
2019-01-14T15:59:15.508Z,654.76
2019-01-14T16:04:17.921Z,654.66
2019-01-14T16:09:20.378Z,654.66
2019-01-14T16:14:22.861Z,654.66
2019-01-14T16:19:25.335Z,654.56
2019-01-14T16:24:27.778Z,654.56
2019-01-14T16:29:30.314Z,654.56
2019-01-14T16:34:32.711Z,654.56
2019-01-14T16:39:35.201Z,654.46
2019-01-14T16:44:37.721Z,654.46
2019-01-14T16:49:40.121Z,654.36
2019-01-14T16:54:42.559Z,654.26
2019-01-14T16:59:45.021Z,654.06
2019-01-14T17:04:47.520Z,653.86
2019-01-14T17:09:49.954Z,653.86
2019-01-14T17:14:52.411Z,653.76
2019-01-14T17:19:54.878Z,653.66
2019-01-14T17:24:57.361Z,653.56
2019-01-14T17:29:59.795Z,653.56
2019-01-14T17:35:02.289Z,653.46
2019-01-14T17:40:04.782Z,653.46
2019-01-14T17:45:07.195Z,653.46
2019-01-14T17:50:09.638Z,653.46
2019-01-14T17:55:12.096Z,653.46
2019-01-14T18:00:14.562Z,653.46
2019-01-14T18:05:17.015Z,653.56
2019-01-14T18:10:19.499Z,653.66
2019-01-14T18:15:21.978Z,653.76
2019-01-14T18:20:24.389Z,653.86
2019-01-14T18:25:26.857Z,653.96
2019-01-14T18:30:29.457Z,654.06
2019-01-14T18:35:31.788Z,654.06
2019-01-14T18:40:34.334Z,653.96
2019-01-14T18:45:36.722Z,653.86
2019-01-14T18:50:39.169Z,653.76
2019-01-14T18:55:41.633Z,653.56
2019-01-14T19:00:44.111Z,653.46
2019-01-14T19:05:46.654Z,653.46
2019-01-14T19:10:54.239Z,653.46
2019-01-14T19:15:51.480Z,653.46
2019-01-14T19:20:53.945Z,653.56
2019-01-14T19:25:56.426Z,653.66
2019-01-14T19:30:58.950Z,653.86
2019-01-14T19:36:01.706Z,654.06
2019-01-14T19:41:03.808Z,654.16
2019-01-14T19:46:06.324Z,654.26
2019-01-14T19:51:08.717Z,654.36
2019-01-14T19:56:11.194Z,654.46
2019-01-14T20:01:13.757Z,654.46
2019-01-14T20:06:16.121Z,654.46
2019-01-14T20:11:18.596Z,654.56
2019-01-14T20:16:21.087Z,654.66
2019-01-14T20:21:23.561Z,654.66
2019-01-14T20:26:25.959Z,654.66
2019-01-14T20:31:28.428Z,654.66
2019-01-14T20:36:30.905Z,654.66
2019-01-14T20:41:33.409Z,654.66
2019-01-14T20:46:35.826Z,654.66
2019-01-14T20:51:38.276Z,654.66
2019-01-14T20:56:40.816Z,654.76
2019-01-14T21:01:43.206Z,654.76
2019-01-14T21:06:45.676Z,654.66
2019-01-14T21:11:48.239Z,654.66
2019-01-14T21:16:50.609Z,654.56
2019-01-14T21:21:53.075Z,654.46
2019-01-14T21:26:55.531Z,654.46
2019-01-14T21:31:57.997Z,654.46
2019-01-14T21:37:00.470Z,654.46
2019-01-14T21:42:02.919Z,654.56
2019-01-14T21:47:05.392Z,654.56
2019-01-14T21:52:07.831Z,654.66
2019-01-14T21:57:10.336Z,654.56
2019-01-14T22:02:12.800Z,654.66
2019-01-14T22:07:15.234Z,654.66
2019-01-14T22:12:17.753Z,654.76
2019-01-14T22:17:20.155Z,654.66
2019-01-14T22:22:22.631Z,654.76
2019-01-14T22:27:25.098Z,654.76
2019-01-14T22:32:27.605Z,654.76
2019-01-14T22:37:30.045Z,654.76
2019-01-14T22:42:32.548Z,654.76
2019-01-14T22:47:35.021Z,654.76
2019-01-14T22:52:37.424Z,654.76
2019-01-14T22:57:39.864Z,654.76
2019-01-14T23:02:42.350Z,654.76
2019-01-14T23:07:44.810Z,654.76
2019-01-14T23:12:47.429Z,654.86
2019-01-14T23:17:49.879Z,654.86
2019-01-14T23:22:52.206Z,654.86
2019-01-14T23:27:54.658Z,654.86
2019-01-14T23:32:57.138Z,654.96
2019-01-14T23:37:59.598Z,654.96
2019-01-14T23:43:02.057Z,654.96
2019-01-14T23:48:04.564Z,654.96
2019-01-14T23:53:06.980Z,654.96
2019-01-14T23:58:09.479Z,654.96
